LTAR Airport Information

Runway Information
Runway 01 Length 12503 ft width 98 ft
Elevation 5236 ft Threshold 0 ft Heading 18
Runway 19 Length 12503 ft Width 98 ft
Elevation 5181 ft Threshold 0 ft Heading 198
Airport Frequencies
Type GND Name GND Frequency 121.9 MHZ
Type TWR Name TWR Frequency 118.1 MHZ
Airport Navaids
Type VOR-DME Name Sivas Frequency 114200 KHZ
Type NDB Name Sivas Frequency 310 KHZ
Airport Weather Information & NOTAM
ADDS - METARS form results

(1548 UTC 21 November 2018)
Data provider http://aviationweather.gov/metar/data/
 
METAR text: LTAR 211534Z 10003KT 5000 BR SCT035 BKN100 05/05 Q1017 RMK RWY19 10004KT
Conditions at: LTAR (SIVAS (CIV/MIL) , TR) observed 1534 UTC 21 November 2018
Temperature: 5.0°C (41°F)
Dewpoint: 5.0°C (41°F) [RH = 100%]
Pressure (altimeter): 30.03 inches Hg (1017.0 mb)
Winds: from the E (100 degrees) at 3 MPH (3 knots; 1.5 m/s)
Visibility: 3 miles ( 5 km)
Ceiling: 10000 feet AGL
Clouds: scattered clouds at 3500 feet AGL
broken clouds at 10000 feet AGL
Weather: BR  (mist)

METAR text: LTAR 211450Z 15003KT 080V170 9999 SCT040 BKN100 05/05 Q1017
Conditions at: LTAR (SIVAS (CIV/MIL) , TR) observed 1450 UTC 21 November 2018
Temperature: 5.0°C (41°F)
Dewpoint: 5.0°C (41°F) [RH = 100%]
Pressure (altimeter): 30.03 inches Hg (1017.0 mb)
Winds: from the SSE (150 degrees) at 3 MPH (3 knots; 1.5 m/s)
Visibility: 6 or more miles (10+ km)
Ceiling: 10000 feet AGL
Clouds: scattered clouds at 4000 feet AGL
broken clouds at 10000 feet AGL
Weather: no significant weather observed at this time

Forecast for: LTAR (SIVAS (CIV/MIL) , TR)
Text: TAF LTAR 211340Z 2115/2124 VRB02KT 9999 -SHRA BKN035 BKN080
Forecast period: 1500 to 1600 UTC 21 November 2018
Forecast type: FROM: standard forecast or significant change
Winds: variable direction winds at 2 MPH (2 knots; 1.0 m/s)
Visibility: 6 or more miles 10+ km)
Ceiling: 3500 feet AGL
Clouds: broken clouds at 3500 feet AGL
broken clouds at 8000 feet AGL
Weather: -SHRA  (light rain showers)
Text: BECMG 2116/2119 -RA SCT009 BKN030 OVC080
Forecast period: 1600 UTC 21 November 2018 to 0000 UTC 22 November 2018
Forecast type: BECOMING: Conditions expected to become as follows by 1900 UTC 21 November 2018
Winds: variable direction winds at 2 MPH (2 knots; 1.0 m/s)
Visibility: 6 or more miles 10+ km)
Ceiling: 3000 feet AGL
Clouds: scattered clouds at 900 feet AGL
broken clouds at 3000 feet AGL
overcast cloud deck at 8000 feet AGL
Weather: -RA  (light rain)